Time;durP1;ratioP1;P1;durP2;ratioP2;P2;SDS_P1;SDS_P2;PMS_P1;PMS_P2;Temp;Humidity;BMP_temperature;BMP_pressure;BME280_temperature;BME280_humidity;BME280_pressure;Samples;Min_cycle;Max_cycle;Signal;HPM_P1;HPM_P2
2023/11/07 00:02:16;;;;;;;1.17;1.07;;;10.60;99.90;;;;;;4998020;28;20249;-91
2023/11/07 00:04:42;;;;;;;1.13;1.13;;;10.70;99.90;;;;;;5012857;28;20205;-93
2023/11/07 00:07:09;;;;;;;0.73;0.73;;;10.70;99.90;;;;;;4997449;28;20746;-91
2023/11/07 00:09:35;;;;;;;1.10;1.10;;;10.70;99.90;;;;;;5030041;28;20191;-92
2023/11/07 00:12:07;;;;;;;1.97;1.60;;;10.70;99.90;;;;;;4998542;28;20187;-96
2023/11/07 00:14:33;;;;;;;1.40;1.30;;;10.80;99.90;;;;;;5039248;28;20214;-95
2023/11/07 00:16:59;;;;;;;3.90;0.53;;;10.80;99.90;;;;;;5036715;28;20243;-94
2023/11/07 00:19:24;;;;;;;1.53;1.27;;;10.70;99.90;;;;;;5034998;28;20440;-94
2023/11/07 00:21:50;;;;;;;1.30;0.63;;;10.70;99.90;;;;;;5002907;28;20186;-94
2023/11/07 00:24:16;;;;;;;3.53;2.67;;;10.70;99.90;;;;;;5034406;28;20664;-93
2023/11/07 00:26:43;;;;;;;0.57;0.57;;;10.70;99.90;;;;;;5032428;28;20238;-96
2023/11/07 00:29:11;;;;;;;0.40;0.40;;;10.80;99.90;;;;;;5001256;28;20237;-94
2023/11/07 00:31:37;;;;;;;5.83;1.83;;;10.70;99.90;;;;;;5000896;28;20717;-94
2023/11/07 00:34:05;;;;;;;4.27;0.93;;;10.70;99.90;;;;;;5018519;28;20212;-93
2023/11/07 00:36:32;;;;;;;0.43;0.40;;;10.70;99.90;;;;;;5035694;28;20303;-94
2023/11/07 00:38:59;;;;;;;6.17;1.00;;;10.70;99.90;;;;;;5033874;28;20232;-94
2023/11/07 00:41:26;;;;;;;0.40;0.40;;;10.70;99.90;;;;;;5014599;28;20841;-94
2023/11/07 00:43:54;;;;;;;3.63;1.07;;;10.70;99.90;;;;;;5014220;28;20249;-94
2023/11/07 00:46:21;;;;;;;2.53;0.60;;;10.70;99.90;;;;;;5015510;28;20271;-93
2023/11/07 00:48:47;;;;;;;0.27;0.27;;;10.70;99.90;;;;;;4998557;28;20190;-93
2023/11/07 00:51:12;;;;;;;0.20;0.20;;;10.70;99.90;;;;;;5030951;28;20189;-93
2023/11/07 00:53:39;;;;;;;0.70;0.67;;;10.60;99.90;;;;;;4998300;28;20214;-93
2023/11/07 00:56:07;;;;;;;0.30;0.30;;;10.60;99.90;;;;;;5014050;28;20225;-93
2023/11/07 00:58:34;;;;;;;0.70;0.70;;;10.50;99.90;;;;;;5010907;28;20210;-93
2023/11/07 01:01:00;;;;;;;0.40;0.40;;;10.40;99.90;;;;;;5023098;28;20214;-92
2023/11/07 01:03:26;;;;;;;0.53;0.53;;;10.40;99.90;;;;;;4998651;28;20186;-93
2023/11/07 01:05:54;;;;;;;3.23;0.53;;;10.40;99.90;;;;;;5013126;28;20199;-93
2023/11/07 01:08:21;;;;;;;0.70;0.57;;;10.30;99.90;;;;;;5029652;28;20366;-93
2023/11/07 01:10:47;;;;;;;0.40;0.40;;;10.30;99.90;;;;;;5013171;28;20218;-92
2023/11/07 01:13:14;;;;;;;0.47;0.47;;;10.20;99.90;;;;;;4996697;28;20220;-92
2023/11/07 01:15:41;;;;;;;0.10;0.10;;;10.20;99.90;;;;;;5013106;28;20182;-92
2023/11/07 01:18:07;;;;;;;4.27;0.93;;;10.20;99.90;;;;;;5029102;28;20697;-92
2023/11/07 01:20:33;;;;;;;0.20;0.20;;;10.20;99.90;;;;;;5039181;28;20226;-92
2023/11/07 01:22:59;;;;;;;0.67;0.67;;;10.20;99.90;;;;;;5014447;28;20210;-93
2023/11/07 01:25:27;;;;;;;0.30;0.30;;;10.20;99.90;;;;;;5012748;28;20624;-92
2023/11/07 01:27:53;;;;;;;0.47;0.47;;;10.20;99.90;;;;;;5016905;28;20319;-92
2023/11/07 01:30:20;;;;;;;0.40;0.40;;;10.10;99.90;;;;;;5013776;28;20604;-92
2023/11/07 01:32:49;;;;;;;0.77;0.70;;;10.10;99.90;;;;;;5012198;28;20959;-92
2023/11/07 01:35:16;;;;;;;2.00;1.37;;;10.10;99.90;;;;;;5013246;28;20214;-92
2023/11/07 01:37:42;;;;;;;0.40;0.40;;;10.00;99.90;;;;;;5028483;28;20210;-92
2023/11/07 01:40:12;;;;;;;1.90;1.27;;;10.00;99.90;;;;;;5029919;28;20581;-92
2023/11/07 01:42:56;;;;;;;2.33;1.23;;;9.90;99.90;;;;;;5011851;28;20191;-92
2023/11/07 01:45:22;;;;;;;1.07;1.07;;;9.90;99.90;;;;;;5013696;28;20228;-93
2023/11/07 01:47:48;;;;;;;0.67;0.63;;;9.90;99.90;;;;;;5046475;28;20599;-92
2023/11/07 01:50:14;;;;;;;1.03;1.03;;;9.90;99.90;;;;;;5013349;28;20224;-92
2023/11/07 01:52:41;;;;;;;2.20;0.90;;;9.90;99.90;;;;;;4996498;28;20207;-92
2023/11/07 01:55:08;;;;;;;1.53;1.40;;;9.90;99.90;;;;;;5012351;28;20206;-92
2023/11/07 01:57:35;;;;;;;1.37;1.27;;;9.80;99.90;;;;;;5028745;28;20186;-92
2023/11/07 02:00:08;;;;;;;1.87;1.40;;;9.90;99.90;;;;;;5012833;28;20256;-92
2023/11/07 02:02:37;;;;;;;0.87;0.87;;;9.80;99.90;;;;;;5030551;28;20210;-92
2023/11/07 02:05:04;;;;;;;3.40;2.00;;;9.90;99.90;;;;;;5028583;28;20226;-92
2023/11/07 02:07:30;;;;;;;2.10;1.77;;;9.90;99.90;;;;;;5045342;28;20345;-93
2023/11/07 02:09:56;;;;;;;8.43;3.60;;;9.90;99.90;;;;;;5018876;28;20603;-92
2023/11/07 02:12:22;;;;;;;2.10;1.60;;;9.90;99.90;;;;;;4997610;28;20202;-92
2023/11/07 02:14:48;;;;;;;5.70;3.93;;;9.90;99.90;;;;;;5013504;28;20211;-92
2023/11/07 02:17:14;;;;;;;4.40;2.07;;;9.90;99.90;;;;;;4996391;28;20210;-92
2023/11/07 02:19:40;;;;;;;2.93;2.17;;;9.90;99.90;;;;;;4997110;28;20237;-92
2023/11/07 02:22:10;;;;;;;2.70;2.40;;;9.90;99.90;;;;;;4996115;28;20214;-92
2023/11/07 02:24:36;;;;;;;2.63;2.43;;;9.80;99.90;;;;;;5028930;28;20635;-92
2023/11/07 02:27:02;;;;;;;1.70;1.67;;;9.80;99.90;;;;;;5013305;28;20197;-92
2023/11/07 02:29:28;;;;;;;1.60;1.50;;;9.80;99.90;;;;;;5011189;28;20242;-92
2023/11/07 02:31:54;;;;;;;0.80;0.80;;;9.80;99.90;;;;;;4995993;28;20222;-91
2023/11/07 02:34:20;;;;;;;12.87;2.77;;;9.80;99.90;;;;;;5012665;28;20382;-91
2023/11/07 02:36:46;;;;;;;3.07;2.70;;;9.80;99.90;;;;;;5011902;28;20214;-92
2023/11/07 02:39:15;;;;;;;2.77;2.13;;;9.70;99.90;;;;;;5011661;28;20182;-92
2023/11/07 02:41:42;;;;;;;2.53;2.33;;;9.70;99.90;;;;;;5013972;28;20213;-92
2023/11/07 02:44:10;;;;;;;3.47;3.17;;;9.70;99.90;;;;;;5048145;28;20300;-93
2023/11/07 02:46:37;;;;;;;2.13;2.00;;;9.70;99.90;;;;;;5015364;28;20248;-92
2023/11/07 02:49:05;;;;;;;3.13;2.07;;;9.60;99.90;;;;;;5016217;28;20206;-92
2023/11/07 02:51:31;;;;;;;4.27;2.47;;;9.70;99.90;;;;;;4999892;28;20205;-91
2023/11/07 02:53:57;;;;;;;2.37;1.70;;;9.70;99.90;;;;;;5037955;28;20222;-92
2023/11/07 02:56:27;;;;;;;3.57;2.60;;;9.70;99.90;;;;;;5000097;28;20298;-92
2023/11/07 02:58:56;;;;;;;3.10;1.73;;;9.70;99.90;;;;;;5032689;28;20241;-92
2023/11/07 03:01:22;;;;;;;3.07;2.87;;;9.70;99.90;;;;;;5031136;28;20270;-92
2023/11/07 03:03:49;;;;;;;1.70;1.00;;;9.70;99.90;;;;;;5031911;28;20241;-92
2023/11/07 03:06:16;;;;;;;6.73;2.17;;;9.70;99.90;;;;;;5015605;28;20655;-92
2023/11/07 03:08:41;;;;;;;2.60;2.10;;;9.70;99.90;;;;;;5030967;28;20213;-92
2023/11/07 03:11:07;;;;;;;4.60;2.63;;;9.70;99.90;;;;;;4997318;28;20225;-92
2023/11/07 03:13:34;;;;;;;8.30;2.30;;;9.70;99.90;;;;;;5031828;28;20222;-92
2023/11/07 03:16:05;;;;;;;3.87;3.50;;;9.70;99.90;;;;;;4998310;28;20241;-92
2023/11/07 03:18:31;;;;;;;2.57;1.93;;;9.80;99.90;;;;;;5016564;28;20611;-93
2023/11/07 03:20:56;;;;;;;9.57;2.33;;;9.80;99.90;;;;;;5014230;28;20328;-93
2023/11/07 03:23:22;;;;;;;2.23;1.40;;;9.80;99.90;;;;;;5015314;28;20702;-92
2023/11/07 03:25:48;;;;;;;2.37;2.27;;;9.80;99.90;;;;;;5031225;28;20280;-92
2023/11/07 03:28:14;;;;;;;7.90;3.30;;;9.80;99.90;;;;;;5032256;28;20233;-91
2023/11/07 03:30:41;;;;;;;3.43;2.57;;;9.80;99.90;;;;;;5022927;28;20586;-93
2023/11/07 03:33:06;;;;;;;4.43;3.43;;;9.80;99.90;;;;;;5016518;28;20672;-92
2023/11/07 03:35:32;;;;;;;2.37;2.13;;;9.80;99.90;;;;;;4998001;28;20210;-92
2023/11/07 03:37:58;;;;;;;2.83;2.13;;;9.80;99.90;;;;;;4997846;28;20306;-92
2023/11/07 03:40:24;;;;;;;2.30;2.20;;;9.80;99.90;;;;;;4998370;28;20232;-92
2023/11/07 03:42:49;;;;;;;3.13;2.40;;;9.80;99.90;;;;;;5014742;28;20194;-92
2023/11/07 03:45:15;;;;;;;1.07;1.07;;;9.80;99.90;;;;;;4998506;28;20190;-92
2023/11/07 03:47:41;;;;;;;7.60;3.17;;;9.80;99.90;;;;;;4998365;28;20248;-92
2023/11/07 03:50:07;;;;;;;7.10;2.63;;;9.70;99.90;;;;;;4998332;28;20206;-92
2023/11/07 03:52:33;;;;;;;1.73;1.63;;;9.70;99.90;;;;;;4997730;28;20714;-92
2023/11/07 03:54:58;;;;;;;4.50;2.10;;;9.70;99.90;;;;;;5031084;28;20222;-92
2023/11/07 03:57:25;;;;;;;1.80;1.10;;;9.70;99.90;;;;;;4999297;28;20866;-92
2023/11/07 03:59:51;;;;;;;3.77;1.70;;;9.60;99.90;;;;;;4997055;28;20254;-92
2023/11/07 04:02:17;;;;;;;2.40;2.20;;;9.60;99.90;;;;;;4998115;28;20694;-92
2023/11/07 04:04:43;;;;;;;3.07;1.37;;;9.50;99.90;;;;;;5013569;28;20214;-92
2023/11/07 04:07:09;;;;;;;2.47;2.27;;;9.50;99.90;;;;;;4997333;28;20348;-92
2023/11/07 04:09:34;;;;;;;2.33;2.13;;;9.50;99.90;;;;;;5013307;28;20183;-92
2023/11/07 04:12:00;;;;;;;0.80;0.80;;;9.50;99.90;;;;;;5013936;28;20201;-92
2023/11/07 04:14:26;;;;;;;2.87;2.70;;;9.50;99.90;;;;;;4997592;28;20218;-91
2023/11/07 04:16:52;;;;;;;1.93;1.83;;;9.50;99.90;;;;;;5014354;28;20345;-92
2023/11/07 04:19:18;;;;;;;3.87;1.77;;;9.60;99.90;;;;;;5015378;28;20255;-93
2023/11/07 04:21:44;;;;;;;1.37;0.90;;;9.50;99.90;;;;;;5016019;28;20186;-92
2023/11/07 04:24:10;;;;;;;9.60;3.07;;;9.50;99.90;;;;;;5030883;28;20186;-92
2023/11/07 04:26:36;;;;;;;2.07;1.97;;;9.50;99.90;;;;;;5015430;28;20335;-92
2023/11/07 04:29:04;;;;;;;2.47;2.37;;;9.50;99.90;;;;;;5028624;28;20222;-92
2023/11/07 04:31:29;;;;;;;3.00;1.77;;;9.50;99.90;;;;;;5012439;28;20214;-92
2023/11/07 04:33:55;;;;;;;5.00;2.63;;;9.50;99.90;;;;;;5028971;28;20225;-93
2023/11/07 04:36:22;;;;;;;2.73;2.10;;;9.50;99.90;;;;;;5012677;28;20561;-92
2023/11/07 04:38:48;;;;;;;3.73;2.30;;;9.50;99.90;;;;;;4995516;28;20203;-92
2023/11/07 04:41:15;;;;;;;1.83;1.73;;;9.50;99.90;;;;;;4995660;28;20230;-92
2023/11/07 04:43:43;;;;;;;3.13;1.57;;;9.40;99.90;;;;;;5001031;28;20222;-92
2023/11/07 04:46:10;;;;;;;4.03;2.90;;;9.40;99.90;;;;;;5012229;28;20229;-92
2023/11/07 04:48:38;;;;;;;3.97;2.37;;;9.40;99.90;;;;;;5012716;28;20289;-92
2023/11/07 04:51:05;;;;;;;4.00;2.40;;;9.40;99.90;;;;;;4997503;28;20237;-92
2023/11/07 04:53:32;;;;;;;9.23;2.73;;;9.40;99.90;;;;;;5028060;28;20867;-92
2023/11/07 04:55:58;;;;;;;1.87;1.40;;;9.40;99.90;;;;;;5027723;28;20222;-92
2023/11/07 04:58:25;;;;;;;1.47;1.37;;;9.30;99.90;;;;;;5027837;28;20214;-92
2023/11/07 05:00:53;;;;;;;2.30;2.17;;;9.30;99.90;;;;;;4996106;28;20678;-92
2023/11/07 05:03:19;;;;;;;2.10;2.00;;;9.40;99.90;;;;;;4996787;28;20201;-93
2023/11/07 05:05:45;;;;;;;2.07;1.97;;;9.30;99.90;;;;;;4993775;28;20233;-92
2023/11/07 05:08:10;;;;;;;5.73;3.20;;;9.40;99.90;;;;;;4994893;28;20306;-92
2023/11/07 05:10:36;;;;;;;1.97;1.77;;;9.30;99.90;;;;;;4995443;28;20222;-92
2023/11/07 05:13:02;;;;;;;2.00;1.90;;;9.30;99.90;;;;;;4995502;28;20284;-93
2023/11/07 05:15:27;;;;;;;1.17;1.10;;;9.30;99.90;;;;;;4996124;28;20341;-92
2023/11/07 05:17:54;;;;;;;1.07;1.03;;;9.30;99.90;;;;;;5019182;28;20726;-93
2023/11/07 05:20:20;;;;;;;2.87;2.63;;;9.40;99.90;;;;;;4995829;28;20227;-92
2023/11/07 05:22:45;;;;;;;1.67;1.50;;;9.40;99.90;;;;;;4995674;28;20218;-91
2023/11/07 05:25:11;;;;;;;3.60;2.03;;;9.30;99.90;;;;;;5013185;28;20206;-92
2023/11/07 05:27:37;;;;;;;3.53;1.87;;;9.30;99.90;;;;;;4995814;28;20183;-92
2023/11/07 05:30:04;;;;;;;2.37;1.73;;;9.30;99.90;;;;;;4995671;28;20242;-93
2023/11/07 05:32:29;;;;;;;2.23;2.03;;;9.30;99.90;;;;;;5012437;28;20263;-92
2023/11/07 05:34:56;;;;;;;9.10;2.07;;;9.30;99.90;;;;;;4994985;28;20226;-92
2023/11/07 05:37:21;;;;;;;3.27;2.93;;;9.30;99.90;;;;;;5019329;28;20695;-92
2023/11/07 05:39:47;;;;;;;1.63;1.53;;;9.30;99.90;;;;;;5027256;28;20263;-92
2023/11/07 05:42:13;;;;;;;3.43;2.47;;;9.30;99.90;;;;;;4995000;28;20727;-92
2023/11/07 05:44:39;;;;;;;1.73;1.63;;;9.30;99.90;;;;;;4995103;28;20222;-91
2023/11/07 05:47:06;;;;;;;1.60;1.00;;;9.30;99.90;;;;;;5027299;28;20221;-92
2023/11/07 05:49:32;;;;;;;4.83;3.03;;;9.30;99.90;;;;;;4995269;28;20218;-92
2023/11/07 05:51:58;;;;;;;3.23;1.37;;;9.30;99.90;;;;;;5010791;28;20793;-92
2023/11/07 05:54:24;;;;;;;2.30;1.27;;;9.30;99.90;;;;;;4994613;28;20187;-91
2023/11/07 05:56:50;;;;;;;2.63;2.43;;;9.30;99.90;;;;;;4995166;28;20225;-92
2023/11/07 05:59:17;;;;;;;1.60;1.50;;;9.40;99.90;;;;;;5011351;28;20218;-91
2023/11/07 06:01:43;;;;;;;0.73;0.73;;;9.30;99.90;;;;;;4995117;28;20206;-92
2023/11/07 06:04:28;;;;;;;1.73;1.63;;;9.30;99.90;;;;;;4995400;28;20215;-91
2023/11/07 06:06:54;;;;;;;0.57;0.57;;;9.30;99.90;;;;;;5027412;28;20217;-92
2023/11/07 06:09:20;;;;;;;4.13;2.57;;;9.30;99.90;;;;;;5012113;28;20564;-93
2023/11/07 06:11:46;;;;;;;1.37;1.27;;;9.30;99.90;;;;;;4994970;28;20206;-92
2023/11/07 06:14:11;;;;;;;3.73;3.43;;;9.30;99.90;;;;;;5012633;28;20214;-92
2023/11/07 06:16:40;;;;;;;3.37;1.43;;;9.30;99.90;;;;;;5030420;28;20334;-91
2023/11/07 06:19:08;;;;;;;4.17;1.57;;;9.20;99.90;;;;;;5031920;28;20216;-92
2023/11/07 06:21:33;;;;;;;6.60;2.10;;;9.20;99.90;;;;;;5015920;28;20253;-91
2023/11/07 06:23:59;;;;;;;3.30;2.87;;;9.30;99.90;;;;;;4998870;28;20308;-92
2023/11/07 06:26:25;;;;;;;1.23;1.20;;;9.30;99.90;;;;;;4998168;28;20663;-92
2023/11/07 06:28:50;;;;;;;1.67;1.57;;;9.30;99.90;;;;;;5014430;28;20313;-92
2023/11/07 06:31:26;;;;;;;2.60;1.90;;;9.30;99.90;;;;;;5014956;28;20230;-92
2023/11/07 06:33:52;;;;;;;1.43;1.40;;;9.40;99.90;;;;;;5031111;28;20208;-92
2023/11/07 06:36:19;;;;;;;2.27;1.10;;;9.40;99.90;;;;;;5015294;28;20187;-92
2023/11/07 06:38:45;;;;;;;4.80;1.57;;;9.40;99.90;;;;;;5014342;28;20195;-92
2023/11/07 06:41:11;;;;;;;0.90;0.73;;;9.40;99.90;;;;;;5029285;28;20326;-92
2023/11/07 06:43:39;;;;;;;6.47;1.33;;;9.40;99.90;;;;;;4997618;28;20214;-92
2023/11/07 06:46:05;;;;;;;3.37;1.13;;;9.40;99.90;;;;;;5029890;28;20241;-91
2023/11/07 06:48:31;;;;;;;0.50;0.50;;;9.40;99.90;;;;;;4998427;28;20225;-92
2023/11/07 06:50:57;;;;;;;2.27;0.93;;;9.40;99.90;;;;;;5013625;28;20265;-92
2023/11/07 06:53:30;;;;;;;1.47;0.90;;;9.40;99.90;;;;;;5014315;28;20556;-92
2023/11/07 06:55:57;;;;;;;1.40;1.30;;;9.40;99.90;;;;;;5014374;28;20219;-92
2023/11/07 06:58:23;;;;;;;0.70;0.70;;;9.40;99.90;;;;;;4998137;28;20632;-92
2023/11/07 07:00:49;;;;;;;0.90;0.73;;;9.40;99.90;;;;;;4998159;28;20203;-92
2023/11/07 07:03:14;;;;;;;0.23;0.23;;;9.50;99.90;;;;;;5021835;28;20182;-92
2023/11/07 07:05:40;;;;;;;1.23;1.23;;;9.50;99.90;;;;;;5029835;28;20583;-92
2023/11/07 07:08:08;;;;;;;0.40;0.40;;;9.60;99.90;;;;;;5029005;28;20211;-91
2023/11/07 07:10:38;;;;;;;2.23;1.90;;;9.70;99.90;;;;;;4998327;28;20699;-92
2023/11/07 07:13:04;;;;;;;1.87;0.60;;;9.80;99.90;;;;;;4998650;28;20240;-92
2023/11/07 07:15:30;;;;;;;6.17;1.27;;;9.80;99.90;;;;;;5013711;28;20226;-91
2023/11/07 07:17:55;;;;;;;0.70;0.70;;;10.00;99.90;;;;;;5000567;28;20214;-92
2023/11/07 07:20:21;;;;;;;0.53;0.53;;;10.10;99.90;;;;;;4997403;28;20711;-92
2023/11/07 07:22:47;;;;;;;0.83;0.83;;;10.20;99.90;;;;;;4997643;28;20203;-92
2023/11/07 07:25:15;;;;;;;0.97;0.93;;;10.20;99.90;;;;;;4991674;28;20206;-92
2023/11/07 07:27:46;;;;;;;5.10;2.13;;;10.00;99.90;;;;;;5013826;28;20187;-91
2023/11/07 07:30:20;;;;;;;1.73;1.33;;;9.90;99.90;;;;;;5014392;28;20237;-95
2023/11/07 07:32:52;;;;;;;2.23;1.03;;;9.80;99.90;;;;;;5031379;28;20585;-91
2023/11/07 07:35:20;;;;;;;0.60;0.50;;;9.80;99.90;;;;;;5048378;28;20237;-93
2023/11/07 07:37:53;;;;;;;1.93;1.83;;;9.80;99.90;;;;;;5030299;28;20737;-93
2023/11/07 07:40:25;;;;;;;2.23;0.97;;;9.80;99.90;;;;;;5029000;28;21280;-92
2023/11/07 07:43:08;;;;;;;1.13;1.03;;;9.80;99.90;;;;;;5006192;28;20179;-94
2023/11/07 07:45:35;;;;;;;1.47;1.37;;;9.80;99.90;;;;;;5015209;28;21071;-92
2023/11/07 07:48:06;;;;;;;1.40;1.30;;;9.80;99.90;;;;;;5013721;28;20179;-93
2023/11/07 07:50:32;;;;;;;3.83;3.37;;;9.80;99.90;;;;;;5014305;28;20572;-93
2023/11/07 07:53:02;;;;;;;11.70;2.73;;;9.80;99.90;;;;;;5013681;28;21166;-93
2023/11/07 07:55:28;;;;;;;2.17;0.97;;;9.90;99.90;;;;;;5029833;28;20356;-93
2023/11/07 07:57:59;;;;;;;0.90;0.90;;;9.80;99.90;;;;;;5005390;28;20211;-91
2023/11/07 08:00:30;;;;;;;1.73;1.17;;;9.90;99.90;;;;;;5014096;28;20209;-94
2023/11/07 08:02:57;;;;;;;1.90;1.53;;;9.90;99.90;;;;;;4997916;28;20686;-94
2023/11/07 08:05:23;;;;;;;0.73;0.43;;;10.10;99.90;;;;;;5012972;28;20671;-92
2023/11/07 08:07:50;;;;;;;1.20;1.10;;;10.70;99.90;;;;;;4997326;28;20218;-92
2023/11/07 08:10:17;;;;;;;0.87;0.87;;;10.70;99.90;;;;;;4997177;28;20231;-93
2023/11/07 08:12:50;;;;;;;0.40;0.40;;;10.70;99.90;;;;;;5014866;28;20348;-91
2023/11/07 08:15:17;;;;;;;3.43;1.23;;;10.70;99.90;;;;;;5012398;28;20186;-92
2023/11/07 08:17:43;;;;;;;0.50;0.50;;;10.60;99.90;;;;;;5013259;28;20203;-93
2023/11/07 08:20:15;;;;;;;0.60;0.60;;;10.60;99.90;;;;;;5013953;28;20699;-92
2023/11/07 08:22:45;;;;;;;0.90;0.90;;;10.70;99.90;;;;;;5014469;28;20202;-95
2023/11/07 08:25:11;;;;;;;0.73;0.63;;;10.60;99.90;;;;;;5031725;28;20206;-93
2023/11/07 08:27:39;;;;;;;0.77;0.77;;;10.60;99.90;;;;;;5013266;28;20183;-92
2023/11/07 08:30:10;;;;;;;0.40;0.40;;;10.60;99.90;;;;;;5011684;28;20222;-93
2023/11/07 08:32:36;;;;;;;1.27;1.03;;;10.70;99.90;;;;;;5028343;28;20303;-93
2023/11/07 08:35:06;;;;;;;1.10;0.83;;;10.80;99.90;;;;;;5011878;28;20326;-92
2023/11/07 08:37:33;;;;;;;0.60;0.60;;;10.80;99.90;;;;;;5013056;28;20241;-93
2023/11/07 08:40:00;;;;;;;1.17;1.07;;;10.80;99.90;;;;;;5010598;28;20269;-93
2023/11/07 08:42:26;;;;;;;0.87;0.87;;;10.90;99.90;;;;;;4996439;28;20548;-93
2023/11/07 08:44:52;;;;;;;1.10;1.03;;;10.90;99.90;;;;;;4995818;28;20211;-92
2023/11/07 08:47:18;;;;;;;9.67;2.13;;;11.00;99.90;;;;;;5011947;28;20206;-94
2023/11/07 08:49:55;;;;;;;3.07;2.03;;;11.00;99.90;;;;;;4996170;28;20210;-92
2023/11/07 08:52:21;;;;;;;2.37;1.50;;;11.10;99.90;;;;;;4996811;28;20710;-93
2023/11/07 08:54:47;;;;;;;0.30;0.30;;;11.30;99.90;;;;;;4995357;28;20189;-92
2023/11/07 08:57:13;;;;;;;0.43;0.43;;;11.40;99.90;;;;;;4996009;28;20179;-94
2023/11/07 08:59:44;;;;;;;0.97;0.87;;;11.40;99.90;;;;;;5011728;28;20817;-93
2023/11/07 09:02:11;;;;;;;0.63;0.60;;;11.40;99.90;;;;;;4996011;28;20629;-91
2023/11/07 09:04:43;;;;;;;0.47;0.47;;;11.50;99.90;;;;;;5011471;28;20214;-93
2023/11/07 09:07:09;;;;;;;1.23;1.20;;;11.60;99.90;;;;;;4998546;28;20337;-93
2023/11/07 09:09:35;;;;;;;3.40;0.67;;;11.60;99.90;;;;;;5011850;28;20270;-92
2023/11/07 09:12:01;;;;;;;1.33;0.90;;;11.60;99.90;;;;;;5012325;28;20190;-91
2023/11/07 09:14:28;;;;;;;0.33;0.33;;;11.60;99.90;;;;;;5028151;28;20199;-92
2023/11/07 09:16:53;;;;;;;1.37;0.80;;;11.50;99.90;;;;;;5028143;28;20206;-92
2023/11/07 09:19:19;;;;;;;1.30;0.67;;;11.40;99.90;;;;;;4994447;28;20215;-92
2023/11/07 09:21:45;;;;;;;3.60;1.00;;;11.30;99.90;;;;;;4995181;28;20187;-90
2023/11/07 09:24:10;;;;;;;0.30;0.30;;;11.30;99.90;;;;;;4994393;28;20183;-91
2023/11/07 09:26:36;;;;;;;0.43;0.43;;;11.20;99.90;;;;;;5011611;28;20221;-91
2023/11/07 09:29:08;;;;;;;1.20;1.20;;;11.30;99.90;;;;;;4994317;28;20317;-91
2023/11/07 09:31:37;;;;;;;1.70;1.03;;;11.40;99.90;;;;;;5012516;28;20302;-91
2023/11/07 09:34:02;;;;;;;4.23;1.00;;;11.40;99.90;;;;;;5012884;28;20238;-92
2023/11/07 09:36:30;;;;;;;0.20;0.20;;;11.40;99.90;;;;;;4996904;28;20228;-92
2023/11/07 09:38:56;;;;;;;0.50;0.50;;;11.40;99.90;;;;;;5011643;28;20209;-92
2023/11/07 09:41:22;;;;;;;1.10;1.10;;;11.40;99.90;;;;;;5012233;28;20617;-90
2023/11/07 09:43:49;;;;;;;2.93;0.90;;;11.40;99.90;;;;;;5011842;28;20213;-92
2023/11/07 09:46:16;;;;;;;1.20;0.70;;;11.50;99.90;;;;;;5003892;28;20217;-92
2023/11/07 09:48:43;;;;;;;0.60;0.60;;;11.50;99.90;;;;;;5013441;28;20186;-91
2023/11/07 09:51:09;;;;;;;3.87;1.17;;;11.60;99.90;;;;;;5015212;28;21112;-92
2023/11/07 09:53:37;;;;;;;0.63;0.63;;;11.70;99.90;;;;;;5016157;28;20222;-91
2023/11/07 09:56:04;;;;;;;0.70;0.70;;;11.90;99.90;;;;;;5016637;28;20681;-92
2023/11/07 09:58:32;;;;;;;1.23;1.23;;;11.90;99.90;;;;;;5033069;28;20301;-91
2023/11/07 10:00:59;;;;;;;0.77;0.77;;;11.80;99.90;;;;;;5016049;28;20246;-91
2023/11/07 10:03:28;;;;;;;1.60;0.47;;;11.90;99.90;;;;;;5016018;28;20313;-92
2023/11/07 10:05:58;;;;;;;0.63;0.63;;;11.90;99.90;;;;;;5032652;28;20218;-92
2023/11/07 10:08:23;;;;;;;0.67;0.63;;;12.00;99.90;;;;;;5030495;28;20218;-92
2023/11/07 10:11:13;;;;;;;1.10;1.07;;;12.10;99.90;;;;;;5017655;28;20209;-90
2023/11/07 10:13:57;;;;;;;0.37;0.37;;;12.30;99.90;;;;;;5023265;28;20214;-92
2023/11/07 10:16:33;;;;;;;0.67;0.67;;;12.40;99.90;;;;;;5038059;28;20302;-91
2023/11/07 10:19:01;;;;;;;2.20;0.90;;;12.50;99.90;;;;;;5016431;28;20249;-91
2023/11/07 10:21:32;;;;;;;0.33;0.33;;;12.70;99.90;;;;;;5000770;28;20206;-91
2023/11/07 10:23:58;;;;;;;1.27;1.17;;;12.90;99.90;;;;;;5048858;28;20206;-91
2023/11/07 10:26:26;;;;;;;0.57;0.57;;;13.00;99.90;;;;;;5014362;28;20214;-91
2023/11/07 10:29:14;;;;;;;0.53;0.53;;;13.30;99.90;;;;;;5042975;28;20248;-91
2023/11/07 10:31:44;;;;;;;1.50;0.83;;;13.50;99.90;;;;;;5032313;28;20218;-91
2023/11/07 10:34:17;;;;;;;0.60;0.50;;;13.60;99.90;;;;;;5046744;28;20209;-93
2023/11/07 10:36:44;;;;;;;6.20;0.63;;;13.80;99.90;;;;;;5040313;28;20181;-92
2023/11/07 10:39:16;;;;;;;1.13;0.57;;;13.90;99.90;;;;;;5001237;28;20214;-92
2023/11/07 10:41:46;;;;;;;0.20;0.20;;;13.70;99.90;;;;;;5046834;28;20226;-93
2023/11/07 10:44:28;;;;;;;0.47;0.43;;;13.70;99.90;;;;;;5031454;28;20704;-92
2023/11/07 10:46:57;;;;;;;0.20;0.20;;;13.50;99.90;;;;;;5049154;28;20233;-91
2023/11/07 10:49:24;;;;;;;0.63;0.63;;;13.40;99.90;;;;;;5032692;28;20221;-90
2023/11/07 10:51:50;;;;;;;0.80;0.80;;;13.20;99.90;;;;;;5013268;28;20709;-90
2023/11/07 10:54:19;;;;;;;1.43;1.33;;;13.30;99.90;;;;;;5015533;28;20240;-92
2023/11/07 10:56:46;;;;;;;0.53;0.53;;;13.20;99.90;;;;;;5014318;28;20227;-89
2023/11/07 10:59:23;;;;;;;1.03;0.63;;;13.10;99.90;;;;;;4998930;28;20229;-92
2023/11/07 11:01:53;;;;;;;0.63;0.63;;;13.10;99.90;;;;;;5031067;28;20261;-92
2023/11/07 11:04:23;;;;;;;0.80;0.80;;;13.10;99.90;;;;;;5015352;28;20280;-92
2023/11/07 11:06:53;;;;;;;0.40;0.40;;;13.10;99.90;;;;;;5032567;28;20273;-91
2023/11/07 11:09:23;;;;;;;1.93;0.60;;;13.10;99.90;;;;;;5031780;28;20567;-91
2023/11/07 11:11:51;;;;;;;0.30;0.30;;;13.10;99.90;;;;;;5030589;28;20211;-91
2023/11/07 11:14:19;;;;;;;4.60;1.03;;;13.10;99.90;;;;;;5030137;28;20218;-91
2023/11/07 11:16:47;;;;;;;2.43;0.80;;;13.30;99.90;;;;;;5014830;28;20529;-91
2023/11/07 11:19:24;;;;;;;2.60;0.57;;;13.40;99.90;;;;;;5030972;28;20241;-91
2023/11/07 11:22:11;;;;;;;2.23;0.80;;;13.60;99.90;;;;;;5047314;28;20195;-90
2023/11/07 11:25:05;;;;;;;0.50;0.50;;;13.80;99.90;;;;;;5045832;28;20174;-90
2023/11/07 11:27:36;;;;;;;1.23;1.13;;;13.70;99.90;;;;;;5050238;28;20182;-91
2023/11/07 11:30:05;;;;;;;0.70;0.70;;;13.70;99.90;;;;;;5003936;28;20261;-89
2023/11/07 11:32:36;;;;;;;0.50;0.50;;;13.70;99.90;;;;;;5014199;28;20264;-89
2023/11/07 11:35:21;;;;;;;1.40;0.60;;;13.60;99.90;;;;;;5030460;28;20214;-90
2023/11/07 11:38:10;;;;;;;0.67;0.43;;;13.30;99.90;;;;;;5047244;28;20230;-90
2023/11/07 11:40:56;;;;;;;1.60;0.53;;;13.20;99.90;;;;;;5030955;28;20233;-90
2023/11/07 11:43:24;;;;;;;0.50;0.50;;;13.10;99.90;;;;;;5013410;28;20773;-90
2023/11/07 11:45:51;;;;;;;0.67;0.53;;;13.10;99.90;;;;;;5046954;28;20626;-89
2023/11/07 11:48:19;;;;;;;0.70;0.70;;;13.20;99.90;;;;;;5031402;28;20205;-90
2023/11/07 11:51:31;;;;;;;3.67;1.20;;;13.20;99.90;;;;;;5013748;28;20694;-90
2023/11/07 11:53:57;;;;;;;0.83;0.50;;;13.20;99.90;;;;;;5024943;28;20210;-90
2023/11/07 11:56:23;;;;;;;0.80;0.70;;;13.30;99.90;;;;;;5030282;28;20233;-90
2023/11/07 11:59:04;;;;;;;0.30;0.30;;;13.40;99.90;;;;;;4997755;28;20702;-89
2023/11/07 12:01:49;;;;;;;0.40;0.40;;;13.20;99.90;;;;;;5029794;28;20214;-90
2023/11/07 12:04:37;;;;;;;0.40;0.40;;;13.20;99.90;;;;;;5029266;28;20543;-92
2023/11/07 12:07:14;;;;;;;2.03;1.73;;;13.00;99.90;;;;;;5029926;28;20256;-90
2023/11/07 12:09:49;;;;;;;0.50;0.50;;;12.80;99.90;;;;;;5028811;28;20197;-90
2023/11/07 12:12:18;;;;;;;0.40;0.33;;;12.50;99.90;;;;;;5029880;28;20573;-89
2023/11/07 12:14:55;;;;;;;0.90;0.50;;;12.40;99.90;;;;;;5011890;28;20222;-89
2023/11/07 12:17:22;;;;;;;1.47;1.37;;;12.30;99.90;;;;;;5013127;28;20244;-90
2023/11/07 12:19:49;;;;;;;0.73;0.63;;;12.20;99.90;;;;;;5013394;28;20205;-89
2023/11/07 12:22:16;;;;;;;1.27;1.27;;;12.10;99.90;;;;;;5030007;28;20225;-90
2023/11/07 12:24:42;;;;;;;2.47;0.63;;;12.00;99.90;;;;;;5046056;28;20166;-89
2023/11/07 12:27:08;;;;;;;0.30;0.30;;;12.00;99.90;;;;;;5029979;28;20643;-89
2023/11/07 12:29:36;;;;;;;0.57;0.57;;;12.00;99.90;;;;;;4997374;28;20226;-89
2023/11/07 12:32:03;;;;;;;0.80;0.77;;;12.00;99.90;;;;;;5030258;28;20214;-88
2023/11/07 12:34:33;;;;;;;1.23;0.90;;;12.30;99.90;;;;;;5037024;28;20571;-88
2023/11/07 12:37:18;;;;;;;0.30;0.30;;;12.40;99.90;;;;;;5023191;28;20205;-90
2023/11/07 12:39:46;;;;;;;1.23;1.13;;;12.50;99.90;;;;;;5029853;28;20569;-89
2023/11/07 12:42:13;;;;;;;0.47;0.37;;;12.60;99.90;;;;;;5027955;28;20186;-89
2023/11/07 12:44:41;;;;;;;0.60;0.60;;;12.60;99.90;;;;;;5026465;28;20257;-90
2023/11/07 12:47:10;;;;;;;0.70;0.60;;;12.70;99.90;;;;;;5027113;28;20583;-89
2023/11/07 12:49:42;;;;;;;0.63;0.60;;;12.80;99.90;;;;;;5026994;28;20682;-90
2023/11/07 12:52:13;;;;;;;2.30;2.10;;;12.80;99.90;;;;;;5027881;28;20337;-90
2023/11/07 12:54:40;;;;;;;3.90;1.33;;;12.60;99.90;;;;;;5026882;28;20177;-90
2023/11/07 12:57:06;;;;;;;1.53;0.87;;;12.50;99.90;;;;;;5013347;28;20237;-89